createdAt,value
2022-08-16T00:01:33.836Z,99592.04
2022-08-16T00:04:07.435Z,99590.10
2022-08-16T00:06:41.829Z,99593.53
2022-08-16T00:09:15.879Z,99595.80
2022-08-16T00:11:48.618Z,99596.61
2022-08-16T00:14:29.221Z,99595.61
2022-08-16T00:17:18.326Z,99595.92
2022-08-16T00:19:53.435Z,99590.98
2022-08-16T00:22:27.940Z,99587.08
2022-08-16T00:24:59.709Z,99584.27
2022-08-16T00:27:31.367Z,99585.93
2022-08-16T00:30:09.244Z,99587.06
2022-08-16T00:32:57.014Z,99587.21
2022-08-16T00:35:31.535Z,99587.16
2022-08-16T00:38:43.604Z,99587.60
2022-08-16T00:41:02.974Z,99586.97
2022-08-16T00:43:42.399Z,99587.15
2022-08-16T00:46:33.262Z,99591.08
2022-08-16T00:49:17.512Z,99592.10
2022-08-16T00:51:53.755Z,99599.34
2022-08-16T00:54:30.664Z,99601.53
2022-08-16T00:57:05.660Z,99601.61
2022-08-16T00:59:49.348Z,99600.60
2022-08-16T01:02:33.104Z,99598.09
2022-08-16T01:05:10.709Z,99601.15
2022-08-16T01:07:50.978Z,99606.20
2022-08-16T01:10:32.062Z,99611.17
2022-08-16T01:13:12.145Z,99620.64
2022-08-16T01:15:52.885Z,99623.17
2022-08-16T01:18:38.966Z,99618.52
2022-08-16T01:21:23.110Z,99619.76
2022-08-16T01:24:52.963Z,99619.17
2022-08-16T01:27:10.220Z,99619.61
2022-08-16T01:29:58.691Z,99619.70
2022-08-16T01:32:35.870Z,99620.98
2022-08-16T01:35:16.709Z,99617.58
2022-08-16T01:37:53.126Z,99611.99
2022-08-16T01:40:30.025Z,99610.95
2022-08-16T01:43:02.677Z,99608.02
2022-08-16T01:45:39.782Z,99606.44
2022-08-16T01:48:20.005Z,99608.84
2022-08-16T01:51:08.944Z,99606.91
2022-08-16T01:53:55.159Z,99613.38
2022-08-16T01:56:35.859Z,99612.70
2022-08-16T01:59:15.915Z,99614.56
2022-08-16T02:01:56.273Z,99617.33
2022-08-16T02:04:49.567Z,99610.11
2022-08-16T02:07:27.523Z,99606.91
2022-08-16T02:10:02.897Z,99601.09
2022-08-16T02:12:51.083Z,99605.53
2022-08-16T02:15:35.316Z,99600.96
2022-08-16T02:18:07.771Z,99599.17
2022-08-16T02:20:50.389Z,99601.02
2022-08-16T02:23:26.200Z,99599.30
2022-08-16T02:26:01.467Z,99608.04
2022-08-16T02:28:34.957Z,99603.17
2022-08-16T02:31:06.776Z,99602.23
2022-08-16T02:33:44.526Z,99602.92
2022-08-16T02:36:47.673Z,99606.49
2022-08-16T02:39:23.019Z,99608.50
2022-08-16T02:41:56.243Z,99608.87
2022-08-16T02:44:28.522Z,99607.95
2022-08-16T02:47:00.541Z,99604.32
2022-08-16T02:50:52.406Z,99598.77
2022-08-16T02:52:29.404Z,99598.45
2022-08-16T02:55:08.085Z,99599.48
2022-08-16T02:57:42.310Z,99606.30
2022-08-16T03:00:31.976Z,99603.12
2022-08-16T03:03:10.564Z,99603.63
2022-08-16T03:05:42.730Z,99602.35
2022-08-16T03:08:50.736Z,99600.61
2022-08-16T03:11:06.650Z,99606.08
2022-08-16T03:13:56.504Z,99615.98
2022-08-16T03:16:37.705Z,99615.33
2022-08-16T03:19:11.153Z,99611.27
2022-08-16T03:21:44.028Z,99608.38
2022-08-16T03:24:29.397Z,99613.57
2022-08-16T03:27:03.219Z,99614.09
2022-08-16T03:29:36.226Z,99614.21
2022-08-16T03:32:09.861Z,99607.71
2022-08-16T03:34:46.437Z,99611.42
2022-08-16T03:37:23.710Z,99613.88
2022-08-16T03:39:56.226Z,99622.70
2022-08-16T03:42:28.965Z,99621.95
2022-08-16T03:45:03.973Z,99625.73
2022-08-16T03:47:39.345Z,99637.19
2022-08-16T03:50:26.192Z,99633.67
2022-08-16T03:53:04.248Z,99633.67
2022-08-16T03:55:45.787Z,99638.54
2022-08-16T03:58:18.207Z,99645.52
2022-08-16T04:00:56.837Z,99651.64
2022-08-16T04:03:32.709Z,99657.27
2022-08-16T04:06:06.281Z,99665.16
2022-08-16T04:08:39.632Z,99665.47
2022-08-16T04:11:11.645Z,99672.98
2022-08-16T04:14:01.618Z,99682.06
2022-08-16T04:16:42.642Z,99687.20
2022-08-16T04:19:35.358Z,99688.72
2022-08-16T04:22:08.529Z,99690.89
2022-08-16T04:24:55.224Z,99696.53
2022-08-16T04:27:32.022Z,99701.88
2022-08-16T04:30:03.944Z,99703.11
2022-08-16T04:32:41.739Z,99701.90
2022-08-16T04:35:17.506Z,99707.87
2022-08-16T04:37:53.783Z,99714.70
2022-08-16T04:40:31.765Z,99719.26
2022-08-16T04:43:04.009Z,99716.46
2022-08-16T04:45:36.985Z,99712.60
2022-08-16T04:48:22.121Z,99713.46
2022-08-16T04:51:07.941Z,99714.21
2022-08-16T04:53:49.538Z,99710.79
2022-08-16T04:56:24.052Z,99714.80
2022-08-16T04:58:57.791Z,99713.29
2022-08-16T05:01:47.713Z,99719.06
2022-08-16T05:04:21.976Z,99717.95
2022-08-16T05:06:54.068Z,99723.23
2022-08-16T05:09:38.505Z,99732.25
2022-08-16T05:12:11.484Z,99735.48
2022-08-16T05:15:01.550Z,99738.08
2022-08-16T05:17:35.009Z,99736.55
2022-08-16T05:20:38.448Z,99735.73
2022-08-16T05:23:04.897Z,99740.68
2022-08-16T05:25:41.233Z,99741.17
2022-08-16T05:28:20.812Z,99740.49
2022-08-16T05:30:57.505Z,99745.38
2022-08-16T05:33:31.473Z,99741.70
2022-08-16T05:36:04.078Z,99738.40
2022-08-16T05:38:50.806Z,99735.40
2022-08-16T05:41:24.436Z,99737.24
2022-08-16T05:43:59.132Z,99742.84
2022-08-16T05:46:43.596Z,99736.42
2022-08-16T05:49:23.380Z,99738.05
2022-08-16T05:52:00.106Z,99737.73
2022-08-16T05:54:33.605Z,99742.50
2022-08-16T05:57:07.868Z,99744.42
2022-08-16T05:59:45.487Z,99748.27
2022-08-16T06:02:21.753Z,99747.40
2022-08-16T06:05:02.110Z,99749.55
2022-08-16T06:07:34.420Z,99746.48
2022-08-16T06:10:13.183Z,99748.20
2022-08-16T06:12:45.164Z,99747.52
2022-08-16T06:15:25.270Z,99752.45
2022-08-16T06:17:58.885Z,99753.38
2022-08-16T06:20:35.161Z,99750.08
2022-08-16T06:23:17.832Z,99747.58
2022-08-16T06:26:01.148Z,99748.13
2022-08-16T06:28:38.453Z,99748.50
2022-08-16T06:31:15.469Z,99756.98
2022-08-16T06:33:51.775Z,99758.65
2022-08-16T06:36:24.586Z,99762.67
2022-08-16T06:39:05.048Z,99763.16
2022-08-16T06:41:57.046Z,99764.52
2022-08-16T06:44:51.080Z,99770.22
2022-08-16T06:47:53.450Z,99775.98
2022-08-16T06:50:29.905Z,99774.13
2022-08-16T06:53:09.556Z,99772.80
2022-08-16T06:55:45.968Z,99769.34
2022-08-16T06:58:21.963Z,99765.04
2022-08-16T07:00:54.929Z,99770.05
2022-08-16T07:03:32.639Z,99772.38
2022-08-16T07:06:06.066Z,99770.75
2022-08-16T07:08:46.792Z,99772.77
2022-08-16T07:11:45.651Z,99774.19
2022-08-16T07:14:23.832Z,99773.05
2022-08-16T07:16:59.582Z,99780.04
2022-08-16T07:20:29.389Z,99782.42
2022-08-16T07:22:36.661Z,99778.38
2022-08-16T07:25:16.980Z,99783.45
2022-08-16T07:27:49.537Z,99786.58
2022-08-16T07:30:39.174Z,99789.19
2022-08-16T07:33:51.220Z,99792.92
2022-08-16T07:36:21.644Z,99796.48
2022-08-16T07:38:54.753Z,99792.74
2022-08-16T07:41:25.441Z,99790.51
2022-08-16T07:44:03.264Z,99790.89
2022-08-16T07:46:55.547Z,99788.42
2022-08-16T07:49:32.461Z,99792.53
2022-08-16T07:52:20.102Z,99793.62
2022-08-16T07:54:53.315Z,99791.00
2022-08-16T07:57:26.411Z,99787.66
2022-08-16T07:59:59.468Z,99791.27
2022-08-16T08:02:31.529Z,99792.08
2022-08-16T08:05:03.690Z,99792.80
2022-08-16T08:07:36.778Z,99797.98
2022-08-16T08:10:10.906Z,99800.86
2022-08-16T08:12:46.615Z,99798.09
2022-08-16T08:15:25.329Z,99795.01
2022-08-16T08:18:00.688Z,99795.64
2022-08-16T08:20:59.428Z,99796.98
2022-08-16T08:23:36.444Z,99799.14
2022-08-16T08:26:17.655Z,99798.81
2022-08-16T08:28:50.132Z,99801.02
2022-08-16T08:31:21.127Z,99799.36
2022-08-16T08:33:56.768Z,99804.02
2022-08-16T08:36:32.918Z,99808.62
2022-08-16T08:39:12.560Z,99815.45
2022-08-16T08:41:46.452Z,99814.87
2022-08-16T08:44:29.107Z,99818.09
2022-08-16T08:47:10.987Z,99817.36
2022-08-16T08:49:44.479Z,99823.96
2022-08-16T08:52:34.315Z,99824.75
2022-08-16T08:55:13.026Z,99826.45
2022-08-16T08:57:48.315Z,99832.17
2022-08-16T09:00:51.643Z,99832.98
2022-08-16T09:03:25.901Z,99839.77
2022-08-16T09:06:00.691Z,99836.59
2022-08-16T09:08:35.078Z,99839.31
2022-08-16T09:11:11.374Z,99843.41
2022-08-16T09:13:49.505Z,99847.67
2022-08-16T09:17:01.403Z,99852.00
2022-08-16T09:19:17.801Z,99855.09
2022-08-16T09:22:06.175Z,99854.94
2022-08-16T09:24:54.148Z,99855.73
2022-08-16T09:27:57.029Z,99853.88
2022-08-16T09:30:36.240Z,99852.41
2022-08-16T09:33:19.910Z,99855.20
2022-08-16T09:35:54.496Z,99858.70
2022-08-16T09:38:32.230Z,99860.83
2022-08-16T09:41:06.724Z,99855.39
2022-08-16T09:43:58.838Z,99854.82
2022-08-16T09:46:45.785Z,99851.63
2022-08-16T09:49:22.105Z,99859.52
2022-08-16T09:51:55.597Z,99854.49
2022-08-16T09:54:32.410Z,99854.02
2022-08-16T09:57:05.709Z,99856.80
2022-08-16T09:59:38.733Z,99853.27
2022-08-16T10:02:26.761Z,99856.66
2022-08-16T10:05:00.277Z,99859.74
2022-08-16T10:07:38.278Z,99858.11
2022-08-16T10:10:19.087Z,99864.59
2022-08-16T10:13:16.244Z,99862.36
2022-08-16T10:15:55.833Z,99861.58
2022-08-16T10:19:00.121Z,99861.65
2022-08-16T10:21:22.642Z,99860.94
2022-08-16T10:23:56.164Z,99862.19
2022-08-16T10:27:16.843Z,99857.92
2022-08-16T10:29:21.293Z,99862.23
2022-08-16T10:31:53.569Z,99855.73
2022-08-16T10:34:32.187Z,99858.29
2022-08-16T10:37:04.858Z,99857.98
2022-08-16T10:39:42.150Z,99859.56
2022-08-16T10:42:14.555Z,99859.77
2022-08-16T10:44:53.736Z,99858.02
2022-08-16T10:47:28.153Z,99861.78
2022-08-16T10:50:05.297Z,99861.69
2022-08-16T10:58:11.469Z,99861.33
2022-08-16T11:00:44.233Z,99859.71
2022-08-16T11:06:12.237Z,99853.81
2022-08-16T11:08:45.746Z,99854.30
2022-08-16T11:11:19.857Z,99852.48
2022-08-16T11:14:05.853Z,99860.97
2022-08-16T11:20:00.680Z,99865.14
2022-08-16T11:22:47.269Z,99868.14
2022-08-16T11:29:11.892Z,99865.73
2022-08-16T11:31:09.325Z,99864.02
2022-08-16T11:33:53.113Z,99863.13
2022-08-16T11:36:28.212Z,99859.80
2022-08-16T11:39:01.628Z,99858.40
2022-08-16T11:41:38.213Z,99862.67
2022-08-16T11:44:20.568Z,99857.94
2022-08-16T11:47:08.004Z,99859.88
2022-08-16T11:49:38.228Z,99853.92
2022-08-16T11:52:37.563Z,99851.66
2022-08-16T11:55:35.620Z,99849.99
2022-08-16T11:58:12.562Z,99848.65
2022-08-16T12:00:50.994Z,99838.34
2022-08-16T12:03:34.769Z,99838.48
2022-08-16T12:06:25.401Z,99829.71
2022-08-16T12:09:01.856Z,99829.30
2022-08-16T12:11:35.318Z,99832.86
2022-08-16T12:14:08.107Z,99837.32
2022-08-16T12:16:40.083Z,99833.67
2022-08-16T12:19:20.860Z,99824.66
2022-08-16T12:22:19.816Z,99822.60
2022-08-16T12:24:53.372Z,99818.03
2022-08-16T12:27:27.105Z,99821.25
2022-08-16T12:29:59.197Z,99813.73
2022-08-16T12:32:39.466Z,99814.48
2022-08-16T12:35:17.378Z,99817.95
2022-08-16T12:37:56.699Z,99821.20
2022-08-16T12:40:32.517Z,99822.58
2022-08-16T12:43:07.252Z,99820.66
2022-08-16T12:45:47.598Z,99821.67
2022-08-16T12:48:55.237Z,99821.95
2022-08-16T12:51:58.343Z,99817.63
2022-08-16T12:54:24.873Z,99816.33
2022-08-16T12:56:56.198Z,99808.77
2022-08-16T12:59:31.171Z,99808.39
2022-08-16T13:02:03.192Z,99811.40
2022-08-16T13:04:38.411Z,99810.45
2022-08-16T13:07:10.104Z,99809.23
2022-08-16T13:09:54.502Z,99805.63
2022-08-16T13:12:28.193Z,99805.24
2022-08-16T13:15:00.075Z,99811.72
2022-08-16T13:17:31.868Z,99810.31
2022-08-16T13:20:11.181Z,99808.84
2022-08-16T13:22:45.889Z,99806.82
2022-08-16T13:25:21.785Z,99809.42
2022-08-16T13:28:02.533Z,99809.13
2022-08-16T13:30:41.233Z,99802.43
2022-08-16T13:33:26.015Z,99801.74
2022-08-16T13:36:03.126Z,99802.18
2022-08-16T13:38:37.720Z,99799.05
2022-08-16T13:41:12.424Z,99794.65
2022-08-16T13:43:44.468Z,99791.84
2022-08-16T13:46:30.562Z,99793.52
2022-08-16T13:49:03.368Z,99799.15
2022-08-16T13:51:35.232Z,99797.92
2022-08-16T13:54:11.182Z,99796.16
2022-08-16T13:56:43.039Z,99793.66
2022-08-16T13:59:20.303Z,99794.21
2022-08-16T14:01:59.625Z,99790.08
2022-08-16T14:04:35.318Z,99789.40
2022-08-16T14:07:11.546Z,99790.77
2022-08-16T14:09:44.265Z,99787.48
2022-08-16T14:12:25.349Z,99791.75
2022-08-16T14:14:58.946Z,99791.42
2022-08-16T14:18:14.857Z,99790.34
2022-08-16T14:20:22.174Z,99793.83
2022-08-16T14:22:55.620Z,99793.84
2022-08-16T14:25:28.035Z,99792.46
2022-08-16T14:28:00.530Z,99796.77
2022-08-16T14:30:32.847Z,99799.19
2022-08-16T14:33:06.354Z,99795.89
2022-08-16T14:35:49.047Z,99795.40
2022-08-16T14:38:23.830Z,99798.19
2022-08-16T14:40:56.447Z,99796.33
2022-08-16T14:43:29.854Z,99796.35
2022-08-16T14:46:04.606Z,99793.60
2022-08-16T14:48:39.533Z,99791.14
2022-08-16T14:51:11.731Z,99789.95
2022-08-16T14:53:45.363Z,99787.88
2022-08-16T14:56:38.611Z,99788.56
2022-08-16T14:59:09.178Z,99785.25
2022-08-16T15:01:58.761Z,99787.48
2022-08-16T15:04:47.919Z,99789.73
2022-08-16T15:07:22.709Z,99787.64
2022-08-16T15:10:01.643Z,99782.86
2022-08-16T15:12:36.223Z,99786.30
2022-08-16T15:15:16.475Z,99794.26
2022-08-16T15:17:54.553Z,99794.70
2022-08-16T15:20:33.249Z,99793.71
2022-08-16T15:23:08.405Z,99796.30
2022-08-16T15:25:44.407Z,99793.70
2022-08-16T15:28:24.017Z,99797.03
2022-08-16T15:31:06.285Z,99794.31
2022-08-16T15:33:44.391Z,99799.23
2022-08-16T15:36:22.180Z,99803.49
2022-08-16T15:39:06.833Z,99801.89
2022-08-16T15:42:04.815Z,99809.27
2022-08-16T15:44:50.972Z,99813.03
2022-08-16T15:47:27.381Z,99812.58
2022-08-16T15:49:59.516Z,99814.96
2022-08-16T15:52:34.623Z,99816.86
2022-08-16T15:55:23.977Z,99819.98
2022-08-16T15:58:34.892Z,99821.96
2022-08-16T16:00:54.534Z,99821.42
2022-08-16T16:03:29.090Z,99820.58
2022-08-16T16:06:07.849Z,99822.55
2022-08-16T16:08:41.504Z,99819.98
2022-08-16T16:11:13.713Z,99823.48
2022-08-16T16:13:44.227Z,99823.61
2022-08-16T16:16:19.856Z,99824.86
2022-08-16T16:18:52.910Z,99825.71
2022-08-16T16:21:25.769Z,99822.65
2022-08-16T16:23:57.903Z,99820.83
2022-08-16T16:26:33.323Z,99820.03
2022-08-16T16:29:10.718Z,99816.75
2022-08-16T16:31:51.380Z,99818.07
2022-08-16T16:34:35.209Z,99820.96
2022-08-16T16:37:09.445Z,99821.42
2022-08-16T16:39:42.251Z,99816.95
2022-08-16T16:42:29.410Z,99815.33
2022-08-16T16:45:03.182Z,99817.02
2022-08-16T16:47:56.173Z,99815.74
2022-08-16T16:50:29.276Z,99821.76
2022-08-16T16:53:01.807Z,99818.71
2022-08-16T16:55:52.217Z,99820.66
2022-08-16T16:58:43.414Z,99817.81
2022-08-16T17:01:15.925Z,99813.11
2022-08-16T17:03:53.739Z,99815.15
2022-08-16T17:06:25.754Z,99819.09
2022-08-16T17:08:57.737Z,99819.27
2022-08-16T17:11:30.979Z,99825.23
2022-08-16T17:14:31.947Z,99823.34
2022-08-16T17:17:01.520Z,99826.46
2022-08-16T17:19:34.199Z,99830.04
2022-08-16T17:22:15.580Z,99834.88
2022-08-16T17:24:52.430Z,99837.31
2022-08-16T17:27:33.718Z,99835.36
2022-08-16T17:30:15.022Z,99836.83
2022-08-16T17:32:54.620Z,99835.03
2022-08-16T17:35:34.233Z,99842.39
2022-08-16T17:38:09.482Z,99840.40
2022-08-16T17:40:51.984Z,99838.05
2022-08-16T17:43:33.482Z,99842.06
2022-08-16T17:46:06.569Z,99844.59
2022-08-16T17:48:58.208Z,99840.52
2022-08-16T17:51:29.868Z,99845.83
2022-08-16T17:54:03.443Z,99846.98
2022-08-16T17:56:35.129Z,99850.48
2022-08-16T17:59:07.135Z,99848.23
2022-08-16T18:01:38.917Z,99850.61
2022-08-16T18:04:12.974Z,99846.07
2022-08-16T18:07:05.369Z,99850.21
2022-08-16T18:09:41.892Z,99852.57
2022-08-16T18:12:54.278Z,99861.05
2022-08-16T18:15:16.918Z,99867.96
2022-08-16T18:17:49.969Z,99868.02
2022-08-16T18:20:41.336Z,99869.31
2022-08-16T18:23:15.649Z,99873.59
2022-08-16T18:25:57.613Z,99877.58
2022-08-16T18:28:31.236Z,99886.98
2022-08-16T18:31:03.775Z,99890.56
2022-08-16T18:33:43.866Z,99891.80
2022-08-16T18:36:21.136Z,99893.63
2022-08-16T18:38:54.982Z,99897.61
2022-08-16T18:41:27.824Z,99898.35
2022-08-16T18:44:25.209Z,99900.77
2022-08-16T18:46:51.987Z,99900.50
2022-08-16T18:49:24.228Z,99898.16
2022-08-16T18:52:00.593Z,99900.34
2022-08-16T18:55:02.081Z,99903.56
2022-08-16T18:57:26.059Z,99909.34
2022-08-16T18:59:57.818Z,99907.21
2022-08-16T19:02:57.644Z,99904.02
2022-08-16T19:05:26.649Z,99905.56
2022-08-16T19:07:58.798Z,99906.74
2022-08-16T19:10:29.334Z,99908.20
2022-08-16T19:13:05.730Z,99904.45
2022-08-16T19:15:38.818Z,99903.52
2022-08-16T19:18:11.698Z,99905.11
2022-08-16T19:20:47.113Z,99904.48
2022-08-16T19:23:21.877Z,99902.39
2022-08-16T19:25:56.861Z,99903.53
2022-08-16T19:28:50.917Z,99906.75
2022-08-16T19:31:24.968Z,99910.44
2022-08-16T19:33:59.215Z,99912.44
2022-08-16T19:36:35.869Z,99916.77
2022-08-16T19:39:11.063Z,99920.34
2022-08-16T19:41:53.259Z,99916.82
2022-08-16T19:44:27.858Z,99922.72
2022-08-16T19:46:59.678Z,99922.64
2022-08-16T19:49:31.469Z,99925.02
2022-08-16T19:52:12.008Z,99921.45
2022-08-16T19:54:44.578Z,99926.15
2022-08-16T19:57:17.626Z,99930.95
2022-08-16T19:59:49.807Z,99935.34
2022-08-16T20:02:35.629Z,99936.02
2022-08-16T20:05:08.848Z,99939.58
2022-08-16T20:07:39.034Z,99940.23
2022-08-16T20:10:15.870Z,99939.75
2022-08-16T20:12:58.325Z,99938.94
2022-08-16T20:15:35.892Z,99940.68
2022-08-16T20:18:25.080Z,99938.91
2022-08-16T20:20:57.832Z,99942.60
2022-08-16T20:23:29.703Z,99943.40
2022-08-16T20:26:01.437Z,99946.81
2022-08-16T20:28:51.670Z,99943.21
2022-08-16T20:31:26.005Z,99941.14
2022-08-16T20:33:57.708Z,99942.29
2022-08-16T20:36:29.998Z,99942.31
2022-08-16T20:39:04.667Z,99943.08
2022-08-16T20:41:37.374Z,99944.52
2022-08-16T20:44:10.820Z,99940.55
2022-08-16T20:46:42.555Z,99942.67
2022-08-16T20:49:14.558Z,99948.10
2022-08-16T20:51:49.740Z,99946.48
2022-08-16T20:54:24.073Z,99947.67
2022-08-16T20:56:55.830Z,99949.98
2022-08-16T20:59:27.746Z,99949.41
2022-08-16T21:02:00.092Z,99954.53
2022-08-16T21:04:32.205Z,99957.84
2022-08-16T21:07:04.236Z,99961.65
2022-08-16T21:09:37.720Z,99963.66
2022-08-16T21:12:17.901Z,99963.54
2022-08-16T21:14:50.305Z,99961.77
2022-08-16T21:17:24.812Z,99958.13
2022-08-16T21:19:56.539Z,99954.98
2022-08-16T21:22:28.779Z,99953.27
2022-08-16T21:25:00.985Z,99957.33
2022-08-16T21:27:32.629Z,99957.35
2022-08-16T21:30:08.229Z,99952.80
2022-08-16T21:32:44.040Z,99952.54
2022-08-16T21:35:15.355Z,99951.31
2022-08-16T21:38:00.999Z,99952.70
2022-08-16T21:40:41.194Z,99953.16
2022-08-16T21:43:14.811Z,99956.63
2022-08-16T21:45:48.162Z,99956.91
2022-08-16T21:48:33.580Z,99958.95
2022-08-16T21:51:14.358Z,99965.19
2022-08-16T21:53:46.334Z,99966.83
2022-08-16T21:56:18.433Z,99967.91
2022-08-16T21:58:53.219Z,99965.12
2022-08-16T22:01:26.472Z,99969.48
2022-08-16T22:04:36.921Z,99967.54
2022-08-16T22:06:49.942Z,99967.57
2022-08-16T22:09:21.845Z,99972.49
2022-08-16T22:11:53.634Z,99971.86
2022-08-16T22:14:25.304Z,99973.83
2022-08-16T22:16:57.056Z,99974.80
2022-08-16T22:19:28.653Z,99970.68
2022-08-16T22:22:05.179Z,99974.16
2022-08-16T22:24:36.955Z,99972.14
2022-08-16T22:27:09.207Z,99973.27
2022-08-16T22:29:42.303Z,99974.70
2022-08-16T22:32:14.402Z,99974.77
2022-08-16T22:34:45.995Z,99978.05
2022-08-16T22:37:17.874Z,99981.44
2022-08-16T22:39:49.662Z,99977.30
2022-08-16T22:42:23.120Z,99975.38
2022-08-16T22:44:55.405Z,99977.54
2022-08-16T22:47:27.291Z,99977.93
2022-08-16T22:49:58.920Z,99979.79
2022-08-16T22:52:44.308Z,99984.24
2022-08-16T22:55:25.940Z,99980.55
2022-08-16T22:57:58.584Z,99979.67
2022-08-16T23:00:33.487Z,99985.52
2022-08-16T23:03:07.953Z,99983.55
2022-08-16T23:05:43.280Z,99987.15
2022-08-16T23:08:39.510Z,99992.58
2022-08-16T23:11:12.544Z,99990.59
2022-08-16T23:13:52.933Z,99981.30
2022-08-16T23:16:33.173Z,99980.94
2022-08-16T23:19:09.094Z,99981.62
2022-08-16T23:21:44.236Z,99981.55
2022-08-16T23:24:19.317Z,99984.05
2022-08-16T23:26:51.594Z,99984.65
2022-08-16T23:29:26.489Z,99982.27
2022-08-16T23:32:09.757Z,99978.17
2022-08-16T23:34:41.648Z,99979.91
2022-08-16T23:37:13.262Z,99979.77
2022-08-16T23:39:44.958Z,99979.98
2022-08-16T23:42:52.296Z,99974.83
2022-08-16T23:45:10.434Z,99976.84
2022-08-16T23:47:42.185Z,99974.81
2022-08-16T23:50:14.269Z,99976.14
2022-08-16T23:53:04.659Z,99975.77
2022-08-16T23:55:42.104Z,99972.48
2022-08-16T23:58:16.749Z,99976.21
